Bellville, Texas
Current Conditions -  °F | °C
As of 9:35 AM on Thursday 30 Oct 2014 (Local Time) from K11R Reporting Station
Clear Clear  
Wind Chill: 64°   Ceiling: Unl
Heat Index: 64°   Visibility: 10mi
Dew Point: 52°   Wind: 6mph
Humidity: 66%   Direction: 110°ESE
Pressure: 30.16"   Gusts: NA
Location:  29.95°N, 96.26°W
Report Text: K11R 301435Z AUTO 11005KT 10SM CLR 18/11 A3016 RMK AO2 T01750111
Loading
Personal Weather Stations






























Interactive Weather Map
Tropical Storm Tracking
New forecast layout! Learn more

10-Day Weather Forecast

Advertisements
Track Severe Weather on mobile